Terminal Aerodrome Forecast
Issued by NWS

Home | Current Version | Previous Version | Graphics & Text | Print | Product List | Glossary On
Versions: 1 2 3 4 5 6 7 8 9 10 11 12 13 14 15
224
FTUS43 KMPX 230520
TAFRWF
TAF
KRWF 230520Z 2306/2406 31007KT P6SM BKN070
     FM231100 35009KT P6SM VCSH SCT015 OVC025
     FM232000 35009KT P6SM VCSH SCT025 BKN040
     FM240000 35008KT P6SM BKN040=

USA.gov is the U.S. government's official web portal to all federal, state and local government web resources and services.